sensor_id;sensor_type;location;lat;lon;timestamp;temperature;humidity
11142;DHT22;5625;50.122;19.864;2022-07-05T00:01:47;24.70;93.10
11142;DHT22;5625;50.122;19.864;2022-07-05T00:04:15;24.70;93.10
11142;DHT22;5625;50.122;19.864;2022-07-05T00:06:43;24.70;93.20
11142;DHT22;5625;50.122;19.864;2022-07-05T00:09:25;24.70;93.20
11142;DHT22;5625;50.122;19.864;2022-07-05T00:11:55;24.70;93.30
11142;DHT22;5625;50.122;19.864;2022-07-05T00:14:23;24.70;93.20
11142;DHT22;5625;50.122;19.864;2022-07-05T00:16:51;24.60;93.80
11142;DHT22;5625;50.122;19.864;2022-07-05T00:19:19;24.60;94.70
11142;DHT22;5625;50.122;19.864;2022-07-05T00:21:48;24.60;95.00
11142;DHT22;5625;50.122;19.864;2022-07-05T00:24:16;24.50;95.50
11142;DHT22;5625;50.122;19.864;2022-07-05T00:26:44;24.50;96.30
11142;DHT22;5625;50.122;19.864;2022-07-05T00:29:13;24.40;96.80
11142;DHT22;5625;50.122;19.864;2022-07-05T00:31:41;24.40;97.40
11142;DHT22;5625;50.122;19.864;2022-07-05T00:34:10;24.40;98.10
11142;DHT22;5625;50.122;19.864;2022-07-05T00:36:39;24.30;98.60
11142;DHT22;5625;50.122;19.864;2022-07-05T00:39:07;24.30;99.20
11142;DHT22;5625;50.122;19.864;2022-07-05T00:41:36;24.20;99.70
11142;DHT22;5625;50.122;19.864;2022-07-05T00:44:07;24.20;99.90
11142;DHT22;5625;50.122;19.864;2022-07-05T00:46:38;24.20;99.90
11142;DHT22;5625;50.122;19.864;2022-07-05T00:49:07;24.10;99.90
11142;DHT22;5625;50.122;19.864;2022-07-05T00:51:36;24.10;99.90
11142;DHT22;5625;50.122;19.864;2022-07-05T00:54:24;24.10;99.90
11142;DHT22;5625;50.122;19.864;2022-07-05T00:56:53;24.00;99.90
11142;DHT22;5625;50.122;19.864;2022-07-05T00:59:24;24.00;99.90
11142;DHT22;5625;50.122;19.864;2022-07-05T01:01:54;24.00;99.90
11142;DHT22;5625;50.122;19.864;2022-07-05T01:04:23;23.90;99.90
11142;DHT22;5625;50.122;19.864;2022-07-05T01:06:51;23.90;99.90
11142;DHT22;5625;50.122;19.864;2022-07-05T01:09:21;23.80;99.90
11142;DHT22;5625;50.122;19.864;2022-07-05T01:11:51;23.80;99.90
11142;DHT22;5625;50.122;19.864;2022-07-05T01:14:22;23.60;99.90
11142;DHT22;5625;50.122;19.864;2022-07-05T01:16:51;23.60;99.90
11142;DHT22;5625;50.122;19.864;2022-07-05T01:19:21;23.50;99.90
11142;DHT22;5625;50.122;19.864;2022-07-05T01:21:50;23.50;99.90
11142;DHT22;5625;50.122;19.864;2022-07-05T01:24:19;23.50;99.90
11142;DHT22;5625;50.122;19.864;2022-07-05T01:26:49;23.40;99.90
11142;DHT22;5625;50.122;19.864;2022-07-05T01:29:17;23.30;99.90
11142;DHT22;5625;50.122;19.864;2022-07-05T01:31:45;23.40;99.90
11142;DHT22;5625;50.122;19.864;2022-07-05T01:34:14;23.30;99.90
11142;DHT22;5625;50.122;19.864;2022-07-05T01:36:42;23.30;99.90
11142;DHT22;5625;50.122;19.864;2022-07-05T01:39:10;23.30;99.90
11142;DHT22;5625;50.122;19.864;2022-07-05T01:41:40;23.30;99.90
11142;DHT22;5625;50.122;19.864;2022-07-05T01:44:08;23.20;99.90
11142;DHT22;5625;50.122;19.864;2022-07-05T01:46:36;23.20;99.90
11142;DHT22;5625;50.122;19.864;2022-07-05T01:49:09;23.10;99.90
11142;DHT22;5625;50.122;19.864;2022-07-05T01:51:42;23.00;99.90
11142;DHT22;5625;50.122;19.864;2022-07-05T01:54:12;23.10;99.90
11142;DHT22;5625;50.122;19.864;2022-07-05T01:56:42;23.10;99.90
11142;DHT22;5625;50.122;19.864;2022-07-05T01:59:11;23.10;99.90
11142;DHT22;5625;50.122;19.864;2022-07-05T02:01:40;23.10;99.90
11142;DHT22;5625;50.122;19.864;2022-07-05T02:04:09;23.10;99.90
11142;DHT22;5625;50.122;19.864;2022-07-05T02:06:38;23.10;99.90
11142;DHT22;5625;50.122;19.864;2022-07-05T02:09:07;23.20;99.90
11142;DHT22;5625;50.122;19.864;2022-07-05T02:11:35;23.10;99.90
11142;DHT22;5625;50.122;19.864;2022-07-05T02:14:05;23.10;99.90
11142;DHT22;5625;50.122;19.864;2022-07-05T02:16:33;23.10;99.90
11142;DHT22;5625;50.122;19.864;2022-07-05T02:19:01;23.10;99.90
11142;DHT22;5625;50.122;19.864;2022-07-05T02:21:29;23.10;99.90
11142;DHT22;5625;50.122;19.864;2022-07-05T02:23:58;23.10;99.90
11142;DHT22;5625;50.122;19.864;2022-07-05T02:26:26;23.10;99.90
11142;DHT22;5625;50.122;19.864;2022-07-05T02:28:54;23.00;99.90
11142;DHT22;5625;50.122;19.864;2022-07-05T02:31:23;23.00;99.90
11142;DHT22;5625;50.122;19.864;2022-07-05T02:33:51;23.00;99.90
11142;DHT22;5625;50.122;19.864;2022-07-05T02:36:20;23.00;99.90
11142;DHT22;5625;50.122;19.864;2022-07-05T02:38:48;22.90;99.90
11142;DHT22;5625;50.122;19.864;2022-07-05T02:41:16;22.90;99.90
11142;DHT22;5625;50.122;19.864;2022-07-05T02:43:44;22.80;99.90
11142;DHT22;5625;50.122;19.864;2022-07-05T02:46:12;22.80;99.90
11142;DHT22;5625;50.122;19.864;2022-07-05T02:48:42;22.80;99.90
11142;DHT22;5625;50.122;19.864;2022-07-05T02:51:10;22.80;99.90
11142;DHT22;5625;50.122;19.864;2022-07-05T02:53:38;22.80;99.90
11142;DHT22;5625;50.122;19.864;2022-07-05T02:56:06;22.70;99.90
11142;DHT22;5625;50.122;19.864;2022-07-05T02:58:36;22.70;99.90
11142;DHT22;5625;50.122;19.864;2022-07-05T03:01:04;22.70;99.90
11142;DHT22;5625;50.122;19.864;2022-07-05T03:03:32;22.70;99.90
11142;DHT22;5625;50.122;19.864;2022-07-05T03:06:02;22.70;99.90
11142;DHT22;5625;50.122;19.864;2022-07-05T03:08:30;22.60;99.90
11142;DHT22;5625;50.122;19.864;2022-07-05T03:10:58;22.50;99.90
11142;DHT22;5625;50.122;19.864;2022-07-05T03:13:26;22.50;99.90
11142;DHT22;5625;50.122;19.864;2022-07-05T03:15:54;22.50;99.90
11142;DHT22;5625;50.122;19.864;2022-07-05T03:18:22;22.50;99.90
11142;DHT22;5625;50.122;19.864;2022-07-05T03:20:50;22.50;99.90
11142;DHT22;5625;50.122;19.864;2022-07-05T03:23:20;22.40;99.90
11142;DHT22;5625;50.122;19.864;2022-07-05T03:25:48;22.50;99.90
11142;DHT22;5625;50.122;19.864;2022-07-05T03:28:16;22.50;99.90
11142;DHT22;5625;50.122;19.864;2022-07-05T03:30:44;22.40;99.90
11142;DHT22;5625;50.122;19.864;2022-07-05T03:33:12;22.30;99.90
11142;DHT22;5625;50.122;19.864;2022-07-05T03:35:40;22.40;99.90
11142;DHT22;5625;50.122;19.864;2022-07-05T03:38:08;22.40;99.90
11142;DHT22;5625;50.122;19.864;2022-07-05T03:40:38;22.40;99.90
11142;DHT22;5625;50.122;19.864;2022-07-05T03:43:09;22.30;99.90
11142;DHT22;5625;50.122;19.864;2022-07-05T03:45:37;22.30;99.90
11142;DHT22;5625;50.122;19.864;2022-07-05T03:48:05;22.30;99.90
11142;DHT22;5625;50.122;19.864;2022-07-05T03:50:53;22.30;99.90
11142;DHT22;5625;50.122;19.864;2022-07-05T03:53:22;22.30;99.90
11142;DHT22;5625;50.122;19.864;2022-07-05T03:55:51;22.30;99.90
11142;DHT22;5625;50.122;19.864;2022-07-05T03:58:19;22.30;99.90
11142;DHT22;5625;50.122;19.864;2022-07-05T04:00:47;22.30;99.90
11142;DHT22;5625;50.122;19.864;2022-07-05T04:03:15;22.30;99.90
11142;DHT22;5625;50.122;19.864;2022-07-05T04:05:44;22.30;99.90
11142;DHT22;5625;50.122;19.864;2022-07-05T04:08:12;22.30;99.90
11142;DHT22;5625;50.122;19.864;2022-07-05T04:10:40;22.30;99.90
11142;DHT22;5625;50.122;19.864;2022-07-05T04:13:09;22.30;99.90
11142;DHT22;5625;50.122;19.864;2022-07-05T04:15:37;22.30;99.90
11142;DHT22;5625;50.122;19.864;2022-07-05T04:18:05;22.30;99.90
11142;DHT22;5625;50.122;19.864;2022-07-05T04:20:33;22.30;99.90
11142;DHT22;5625;50.122;19.864;2022-07-05T04:23:01;22.30;99.90
11142;DHT22;5625;50.122;19.864;2022-07-05T04:25:31;22.20;99.90
11142;DHT22;5625;50.122;19.864;2022-07-05T04:27:59;22.20;99.90
11142;DHT22;5625;50.122;19.864;2022-07-05T04:30:28;22.10;99.90
11142;DHT22;5625;50.122;19.864;2022-07-05T04:32:56;22.10;99.90
11142;DHT22;5625;50.122;19.864;2022-07-05T04:35:25;21.90;99.90
11142;DHT22;5625;50.122;19.864;2022-07-05T04:37:53;21.90;99.90
11142;DHT22;5625;50.122;19.864;2022-07-05T04:40:21;21.90;99.90
11142;DHT22;5625;50.122;19.864;2022-07-05T04:42:49;21.90;99.90
11142;DHT22;5625;50.122;19.864;2022-07-05T04:45:17;21.90;99.90
11142;DHT22;5625;50.122;19.864;2022-07-05T04:47:47;21.90;99.90
11142;DHT22;5625;50.122;19.864;2022-07-05T04:50:15;21.90;99.90
11142;DHT22;5625;50.122;19.864;2022-07-05T04:52:43;21.90;99.90
11142;DHT22;5625;50.122;19.864;2022-07-05T04:55:11;21.90;99.90
11142;DHT22;5625;50.122;19.864;2022-07-05T04:57:40;21.90;99.90
11142;DHT22;5625;50.122;19.864;2022-07-05T05:00:10;21.80;99.90
11142;DHT22;5625;50.122;19.864;2022-07-05T05:02:42;21.80;99.90
11142;DHT22;5625;50.122;19.864;2022-07-05T05:05:12;21.80;99.90
11142;DHT22;5625;50.122;19.864;2022-07-05T05:07:43;21.70;99.90
11142;DHT22;5625;50.122;19.864;2022-07-05T05:10:12;21.70;99.90
11142;DHT22;5625;50.122;19.864;2022-07-05T05:12:40;21.70;99.90
11142;DHT22;5625;50.122;19.864;2022-07-05T05:15:08;21.60;99.90
11142;DHT22;5625;50.122;19.864;2022-07-05T05:17:38;21.60;99.90
11142;DHT22;5625;50.122;19.864;2022-07-05T05:20:09;21.60;99.90
11142;DHT22;5625;50.122;19.864;2022-07-05T05:22:39;21.60;99.90
11142;DHT22;5625;50.122;19.864;2022-07-05T05:25:08;21.60;99.90
11142;DHT22;5625;50.122;19.864;2022-07-05T05:27:40;21.60;99.90
11142;DHT22;5625;50.122;19.864;2022-07-05T05:30:14;21.60;99.90
11142;DHT22;5625;50.122;19.864;2022-07-05T05:32:43;21.60;99.90
11142;DHT22;5625;50.122;19.864;2022-07-05T05:35:11;21.70;99.90
11142;DHT22;5625;50.122;19.864;2022-07-05T05:37:48;21.70;99.90
11142;DHT22;5625;50.122;19.864;2022-07-05T05:40:16;21.60;99.90
11142;DHT22;5625;50.122;19.864;2022-07-05T05:42:45;21.50;99.90
11142;DHT22;5625;50.122;19.864;2022-07-05T05:45:13;21.60;99.90
11142;DHT22;5625;50.122;19.864;2022-07-05T05:47:49;21.50;99.90
11142;DHT22;5625;50.122;19.864;2022-07-05T05:50:18;21.40;99.90
11142;DHT22;5625;50.122;19.864;2022-07-05T05:52:48;21.40;99.90
11142;DHT22;5625;50.122;19.864;2022-07-05T05:55:17;21.40;99.90
11142;DHT22;5625;50.122;19.864;2022-07-05T05:57:46;21.40;99.90
11142;DHT22;5625;50.122;19.864;2022-07-05T06:00:15;21.30;99.90
11142;DHT22;5625;50.122;19.864;2022-07-05T06:02:44;21.30;99.90
11142;DHT22;5625;50.122;19.864;2022-07-05T06:05:13;21.30;99.90
11142;DHT22;5625;50.122;19.864;2022-07-05T06:07:53;21.40;99.90
11142;DHT22;5625;50.122;19.864;2022-07-05T06:10:24;21.40;99.90
11142;DHT22;5625;50.122;19.864;2022-07-05T06:12:53;21.50;99.90
11142;DHT22;5625;50.122;19.864;2022-07-05T06:15:21;21.40;99.90
11142;DHT22;5625;50.122;19.864;2022-07-05T06:17:50;21.40;99.90
11142;DHT22;5625;50.122;19.864;2022-07-05T06:20:21;21.40;99.90
11142;DHT22;5625;50.122;19.864;2022-07-05T06:22:51;21.30;99.90
11142;DHT22;5625;50.122;19.864;2022-07-05T06:25:23;21.40;99.90
11142;DHT22;5625;50.122;19.864;2022-07-05T06:27:53;21.30;99.90
11142;DHT22;5625;50.122;19.864;2022-07-05T06:30:28;21.30;99.90
11142;DHT22;5625;50.122;19.864;2022-07-05T06:32:57;21.30;99.90
11142;DHT22;5625;50.122;19.864;2022-07-05T06:35:25;21.30;99.90
11142;DHT22;5625;50.122;19.864;2022-07-05T06:37:58;21.30;99.90
11142;DHT22;5625;50.122;19.864;2022-07-05T06:40:30;21.30;99.90
11142;DHT22;5625;50.122;19.864;2022-07-05T06:43:00;21.20;99.90
11142;DHT22;5625;50.122;19.864;2022-07-05T06:45:29;21.20;99.90
11142;DHT22;5625;50.122;19.864;2022-07-05T06:47:58;21.20;99.90
11142;DHT22;5625;50.122;19.864;2022-07-05T06:50:28;21.30;99.90
11142;DHT22;5625;50.122;19.864;2022-07-05T06:52:57;21.30;99.90
11142;DHT22;5625;50.122;19.864;2022-07-05T06:55:26;21.30;99.90
11142;DHT22;5625;50.122;19.864;2022-07-05T06:57:58;21.30;99.90
11142;DHT22;5625;50.122;19.864;2022-07-05T07:00:43;21.30;99.90
11142;DHT22;5625;50.122;19.864;2022-07-05T07:03:31;21.30;99.90
11142;DHT22;5625;50.122;19.864;2022-07-05T07:06:19;21.30;99.90
11142;DHT22;5625;50.122;19.864;2022-07-05T07:08:49;21.30;99.90
11142;DHT22;5625;50.122;19.864;2022-07-05T07:11:33;21.30;99.90
11142;DHT22;5625;50.122;19.864;2022-07-05T07:14:02;21.30;99.90
11142;DHT22;5625;50.122;19.864;2022-07-05T07:16:30;21.20;99.90
11142;DHT22;5625;50.122;19.864;2022-07-05T07:18:59;21.20;99.90
11142;DHT22;5625;50.122;19.864;2022-07-05T07:21:39;21.30;99.90
11142;DHT22;5625;50.122;19.864;2022-07-05T07:24:09;21.30;99.90
11142;DHT22;5625;50.122;19.864;2022-07-05T07:26:37;21.30;99.90
11142;DHT22;5625;50.122;19.864;2022-07-05T07:29:23;21.30;99.90
11142;DHT22;5625;50.122;19.864;2022-07-05T07:31:51;21.30;99.90
11142;DHT22;5625;50.122;19.864;2022-07-05T07:34:19;21.30;99.90
11142;DHT22;5625;50.122;19.864;2022-07-05T07:36:50;21.30;99.90
11142;DHT22;5625;50.122;19.864;2022-07-05T07:39:20;21.30;99.90
11142;DHT22;5625;50.122;19.864;2022-07-05T07:41:47;21.30;99.90
11142;DHT22;5625;50.122;19.864;2022-07-05T07:44:16;21.30;99.90
11142;DHT22;5625;50.122;19.864;2022-07-05T07:46:44;21.30;99.90
11142;DHT22;5625;50.122;19.864;2022-07-05T07:49:12;21.20;99.90
11142;DHT22;5625;50.122;19.864;2022-07-05T07:51:44;21.30;99.90
11142;DHT22;5625;50.122;19.864;2022-07-05T07:54:12;21.30;99.90
11142;DHT22;5625;50.122;19.864;2022-07-05T07:56:42;21.40;99.90
11142;DHT22;5625;50.122;19.864;2022-07-05T07:59:10;21.40;99.90
11142;DHT22;5625;50.122;19.864;2022-07-05T08:01:39;21.40;99.90
11142;DHT22;5625;50.122;19.864;2022-07-05T08:04:12;21.40;99.90
11142;DHT22;5625;50.122;19.864;2022-07-05T08:06:42;21.40;99.90
11142;DHT22;5625;50.122;19.864;2022-07-05T08:09:10;21.40;99.90
11142;DHT22;5625;50.122;19.864;2022-07-05T08:11:45;21.50;99.90
11142;DHT22;5625;50.122;19.864;2022-07-05T08:14:14;21.40;99.90
11142;DHT22;5625;50.122;19.864;2022-07-05T08:16:42;21.40;99.90
11142;DHT22;5625;50.122;19.864;2022-07-05T08:19:18;21.40;99.90
11142;DHT22;5625;50.122;19.864;2022-07-05T08:22:04;21.40;99.90
11142;DHT22;5625;50.122;19.864;2022-07-05T08:24:35;21.40;99.90
11142;DHT22;5625;50.122;19.864;2022-07-05T08:27:05;21.40;99.90
11142;DHT22;5625;50.122;19.864;2022-07-05T08:29:34;21.40;99.90
11142;DHT22;5625;50.122;19.864;2022-07-05T08:32:03;21.40;99.90
11142;DHT22;5625;50.122;19.864;2022-07-05T08:34:31;21.50;99.90
11142;DHT22;5625;50.122;19.864;2022-07-05T08:37:00;21.50;99.90
11142;DHT22;5625;50.122;19.864;2022-07-05T08:39:29;21.50;99.90
11142;DHT22;5625;50.122;19.864;2022-07-05T08:41:58;21.50;99.90
11142;DHT22;5625;50.122;19.864;2022-07-05T08:44:29;21.50;99.90
11142;DHT22;5625;50.122;19.864;2022-07-05T08:47:02;21.50;99.90
11142;DHT22;5625;50.122;19.864;2022-07-05T08:49:31;21.60;99.90
11142;DHT22;5625;50.122;19.864;2022-07-05T08:52:02;21.50;99.90
11142;DHT22;5625;50.122;19.864;2022-07-05T08:54:32;21.50;99.90
11142;DHT22;5625;50.122;19.864;2022-07-05T08:57:01;21.60;99.90
11142;DHT22;5625;50.122;19.864;2022-07-05T08:59:43;21.50;99.90
11142;DHT22;5625;50.122;19.864;2022-07-05T09:02:13;21.60;99.90
11142;DHT22;5625;50.122;19.864;2022-07-05T09:04:45;21.50;99.90
11142;DHT22;5625;50.122;19.864;2022-07-05T09:07:16;21.60;99.90
11142;DHT22;5625;50.122;19.864;2022-07-05T09:09:47;21.60;99.90
11142;DHT22;5625;50.122;19.864;2022-07-05T09:12:17;21.60;99.90
11142;DHT22;5625;50.122;19.864;2022-07-05T09:14:51;21.60;99.90
11142;DHT22;5625;50.122;19.864;2022-07-05T09:17:19;21.60;99.90
11142;DHT22;5625;50.122;19.864;2022-07-05T09:20:07;21.60;99.90
11142;DHT22;5625;50.122;19.864;2022-07-05T09:22:47;21.60;99.90
11142;DHT22;5625;50.122;19.864;2022-07-05T09:25:18;21.70;99.90
11142;DHT22;5625;50.122;19.864;2022-07-05T09:27:51;21.70;99.90
11142;DHT22;5625;50.122;19.864;2022-07-05T09:30:35;21.70;99.90
11142;DHT22;5625;50.122;19.864;2022-07-05T09:33:08;21.70;99.90
11142;DHT22;5625;50.122;19.864;2022-07-05T09:35:38;21.70;99.90
11142;DHT22;5625;50.122;19.864;2022-07-05T09:38:17;21.80;99.90
11142;DHT22;5625;50.122;19.864;2022-07-05T09:40:47;21.80;99.90
11142;DHT22;5625;50.122;19.864;2022-07-05T09:43:17;21.70;99.90
11142;DHT22;5625;50.122;19.864;2022-07-05T09:45:58;21.70;99.90
11142;DHT22;5625;50.122;19.864;2022-07-05T09:48:29;21.80;99.90
11142;DHT22;5625;50.122;19.864;2022-07-05T09:51:08;21.80;99.90
11142;DHT22;5625;50.122;19.864;2022-07-05T09:53:57;21.70;99.90
11142;DHT22;5625;50.122;19.864;2022-07-05T09:56:43;21.70;99.90
11142;DHT22;5625;50.122;19.864;2022-07-05T09:59:13;21.60;99.90
11142;DHT22;5625;50.122;19.864;2022-07-05T10:01:43;21.70;99.90
11142;DHT22;5625;50.122;19.864;2022-07-05T10:04:11;21.60;99.90
11142;DHT22;5625;50.122;19.864;2022-07-05T10:06:40;21.60;99.90
11142;DHT22;5625;50.122;19.864;2022-07-05T10:09:10;21.70;99.90
11142;DHT22;5625;50.122;19.864;2022-07-05T10:11:40;21.70;99.90
11142;DHT22;5625;50.122;19.864;2022-07-05T10:14:15;21.80;99.90
11142;DHT22;5625;50.122;19.864;2022-07-05T10:16:54;21.80;99.90
11142;DHT22;5625;50.122;19.864;2022-07-05T10:19:28;21.90;99.90
11142;DHT22;5625;50.122;19.864;2022-07-05T10:21:57;21.90;99.90
11142;DHT22;5625;50.122;19.864;2022-07-05T10:24:45;21.90;99.90
11142;DHT22;5625;50.122;19.864;2022-07-05T10:27:14;21.90;99.90
11142;DHT22;5625;50.122;19.864;2022-07-05T10:29:44;21.90;99.90
11142;DHT22;5625;50.122;19.864;2022-07-05T10:32:14;21.90;99.90
11142;DHT22;5625;50.122;19.864;2022-07-05T10:34:44;22.00;99.90
11142;DHT22;5625;50.122;19.864;2022-07-05T10:37:22;22.00;99.90
11142;DHT22;5625;50.122;19.864;2022-07-05T10:39:50;22.00;99.90
11142;DHT22;5625;50.122;19.864;2022-07-05T10:42:20;22.00;99.90
11142;DHT22;5625;50.122;19.864;2022-07-05T10:44:49;22.00;99.90
11142;DHT22;5625;50.122;19.864;2022-07-05T10:47:18;22.10;99.90
11142;DHT22;5625;50.122;19.864;2022-07-05T10:50:03;22.10;99.90
11142;DHT22;5625;50.122;19.864;2022-07-05T10:52:32;22.20;99.90
11142;DHT22;5625;50.122;19.864;2022-07-05T10:55:20;22.20;99.90
11142;DHT22;5625;50.122;19.864;2022-07-05T10:58:17;22.30;99.90
11142;DHT22;5625;50.122;19.864;2022-07-05T11:00:47;22.30;99.90
11142;DHT22;5625;50.122;19.864;2022-07-05T11:03:36;22.40;99.90
11142;DHT22;5625;50.122;19.864;2022-07-05T11:06:05;22.50;99.90
11142;DHT22;5625;50.122;19.864;2022-07-05T11:11:36;22.60;99.90
11142;DHT22;5625;50.122;19.864;2022-07-05T11:14:30;22.70;99.90
11142;DHT22;5625;50.122;19.864;2022-07-05T11:17:22;22.70;99.90
11142;DHT22;5625;50.122;19.864;2022-07-05T11:20:16;22.80;99.90
11142;DHT22;5625;50.122;19.864;2022-07-05T11:23:04;22.90;99.90
11142;DHT22;5625;50.122;19.864;2022-07-05T11:25:34;22.90;99.90
11142;DHT22;5625;50.122;19.864;2022-07-05T11:28:15;23.00;99.90
11142;DHT22;5625;50.122;19.864;2022-07-05T11:30:48;23.10;99.90
11142;DHT22;5625;50.122;19.864;2022-07-05T11:33:30;23.10;99.90
11142;DHT22;5625;50.122;19.864;2022-07-05T11:36:01;23.10;99.90
11142;DHT22;5625;50.122;19.864;2022-07-05T11:38:30;23.10;99.90
11142;DHT22;5625;50.122;19.864;2022-07-05T11:41:19;23.20;99.90
11142;DHT22;5625;50.122;19.864;2022-07-05T11:43:55;23.20;99.90
11142;DHT22;5625;50.122;19.864;2022-07-05T11:46:25;23.20;99.90
11142;DHT22;5625;50.122;19.864;2022-07-05T11:49:21;23.30;99.90
11142;DHT22;5625;50.122;19.864;2022-07-05T11:51:55;23.20;99.90
11142;DHT22;5625;50.122;19.864;2022-07-05T11:54:24;23.20;99.90
11142;DHT22;5625;50.122;19.864;2022-07-05T11:56:52;23.30;99.90
11142;DHT22;5625;50.122;19.864;2022-07-05T11:59:25;23.20;99.90
11142;DHT22;5625;50.122;19.864;2022-07-05T12:01:55;23.20;99.90
11142;DHT22;5625;50.122;19.864;2022-07-05T12:04:25;23.20;99.90
11142;DHT22;5625;50.122;19.864;2022-07-05T12:06:55;23.30;99.90
11142;DHT22;5625;50.122;19.864;2022-07-05T12:09:25;23.20;99.90
11142;DHT22;5625;50.122;19.864;2022-07-05T12:11:54;23.30;99.90
11142;DHT22;5625;50.122;19.864;2022-07-05T12:14:47;23.20;99.90
11142;DHT22;5625;50.122;19.864;2022-07-05T12:17:17;23.20;99.90
11142;DHT22;5625;50.122;19.864;2022-07-05T12:19:52;23.20;99.90
11142;DHT22;5625;50.122;19.864;2022-07-05T12:22:33;23.20;99.90
11142;DHT22;5625;50.122;19.864;2022-07-05T12:25:02;23.30;99.90
11142;DHT22;5625;50.122;19.864;2022-07-05T12:27:35;23.20;99.90
11142;DHT22;5625;50.122;19.864;2022-07-05T12:30:05;23.20;99.90
11142;DHT22;5625;50.122;19.864;2022-07-05T12:32:53;23.20;99.90
11142;DHT22;5625;50.122;19.864;2022-07-05T12:35:33;23.20;99.90
11142;DHT22;5625;50.122;19.864;2022-07-05T12:38:04;23.20;99.90
11142;DHT22;5625;50.122;19.864;2022-07-05T12:40:33;23.20;99.90
11142;DHT22;5625;50.122;19.864;2022-07-05T12:43:03;23.20;99.90
11142;DHT22;5625;50.122;19.864;2022-07-05T12:45:33;23.10;99.90
11142;DHT22;5625;50.122;19.864;2022-07-05T12:48:03;23.10;99.90
11142;DHT22;5625;50.122;19.864;2022-07-05T12:50:44;23.10;99.90
11142;DHT22;5625;50.122;19.864;2022-07-05T12:53:34;23.00;99.90
11142;DHT22;5625;50.122;19.864;2022-07-05T12:56:23;23.00;99.90
11142;DHT22;5625;50.122;19.864;2022-07-05T12:59:29;23.00;99.90
11142;DHT22;5625;50.122;19.864;2022-07-05T13:01:57;23.00;99.90
11142;DHT22;5625;50.122;19.864;2022-07-05T13:04:25;22.90;99.90
11142;DHT22;5625;50.122;19.864;2022-07-05T13:06:55;22.80;99.90
11142;DHT22;5625;50.122;19.864;2022-07-05T13:09:36;22.80;99.90
11142;DHT22;5625;50.122;19.864;2022-07-05T13:12:10;22.80;99.90
11142;DHT22;5625;50.122;19.864;2022-07-05T13:14:39;22.80;99.90
11142;DHT22;5625;50.122;19.864;2022-07-05T13:17:09;22.70;99.90
11142;DHT22;5625;50.122;19.864;2022-07-05T13:19:39;22.70;99.90
11142;DHT22;5625;50.122;19.864;2022-07-05T13:22:07;22.60;99.90
11142;DHT22;5625;50.122;19.864;2022-07-05T13:24:40;22.60;99.90
11142;DHT22;5625;50.122;19.864;2022-07-05T13:27:10;22.60;99.90
11142;DHT22;5625;50.122;19.864;2022-07-05T13:29:39;22.50;99.90
11142;DHT22;5625;50.122;19.864;2022-07-05T13:32:08;22.40;99.90
11142;DHT22;5625;50.122;19.864;2022-07-05T13:34:36;22.50;99.90
11142;DHT22;5625;50.122;19.864;2022-07-05T13:37:04;22.50;99.90
11142;DHT22;5625;50.122;19.864;2022-07-05T13:39:32;22.50;99.90
11142;DHT22;5625;50.122;19.864;2022-07-05T13:42:02;22.50;99.90
11142;DHT22;5625;50.122;19.864;2022-07-05T13:44:32;22.30;99.90
11142;DHT22;5625;50.122;19.864;2022-07-05T13:47:02;22.30;99.90
11142;DHT22;5625;50.122;19.864;2022-07-05T13:49:30;22.30;99.90
11142;DHT22;5625;50.122;19.864;2022-07-05T13:51:58;22.40;99.90
11142;DHT22;5625;50.122;19.864;2022-07-05T13:54:28;22.40;99.90
11142;DHT22;5625;50.122;19.864;2022-07-05T13:56:56;22.50;99.90
11142;DHT22;5625;50.122;19.864;2022-07-05T13:59:26;22.50;99.90
11142;DHT22;5625;50.122;19.864;2022-07-05T14:01:54;22.60;99.90
11142;DHT22;5625;50.122;19.864;2022-07-05T14:04:23;22.60;99.90
11142;DHT22;5625;50.122;19.864;2022-07-05T14:06:54;22.70;99.90
11142;DHT22;5625;50.122;19.864;2022-07-05T14:09:22;22.70;99.90
11142;DHT22;5625;50.122;19.864;2022-07-05T14:11:55;22.80;99.90
11142;DHT22;5625;50.122;19.864;2022-07-05T14:14:23;22.70;99.90
11142;DHT22;5625;50.122;19.864;2022-07-05T14:16:52;22.80;99.90
11142;DHT22;5625;50.122;19.864;2022-07-05T14:19:20;22.80;99.90
11142;DHT22;5625;50.122;19.864;2022-07-05T14:21:48;22.80;99.90
11142;DHT22;5625;50.122;19.864;2022-07-05T14:24:16;22.80;99.90
11142;DHT22;5625;50.122;19.864;2022-07-05T14:26:44;22.90;99.90
11142;DHT22;5625;50.122;19.864;2022-07-05T14:29:12;22.90;99.90
11142;DHT22;5625;50.122;19.864;2022-07-05T14:31:41;22.90;99.90
11142;DHT22;5625;50.122;19.864;2022-07-05T14:34:11;22.80;99.90
11142;DHT22;5625;50.122;19.864;2022-07-05T14:36:39;22.90;99.90
11142;DHT22;5625;50.122;19.864;2022-07-05T14:39:07;23.00;99.90
11142;DHT22;5625;50.122;19.864;2022-07-05T14:41:44;23.00;99.90
11142;DHT22;5625;50.122;19.864;2022-07-05T14:44:14;22.90;99.90
11142;DHT22;5625;50.122;19.864;2022-07-05T14:46:42;22.80;99.90
11142;DHT22;5625;50.122;19.864;2022-07-05T14:49:12;22.70;99.90
11142;DHT22;5625;50.122;19.864;2022-07-05T14:51:40;22.70;99.90
11142;DHT22;5625;50.122;19.864;2022-07-05T14:54:08;22.60;99.90
11142;DHT22;5625;50.122;19.864;2022-07-05T14:56:36;22.70;99.90
11142;DHT22;5625;50.122;19.864;2022-07-05T14:59:04;22.60;99.90
11142;DHT22;5625;50.122;19.864;2022-07-05T15:01:32;22.60;99.90
11142;DHT22;5625;50.122;19.864;2022-07-05T15:04:04;22.60;99.90
11142;DHT22;5625;50.122;19.864;2022-07-05T15:06:34;22.60;99.90
11142;DHT22;5625;50.122;19.864;2022-07-05T15:09:02;22.60;99.90
11142;DHT22;5625;50.122;19.864;2022-07-05T15:11:30;22.60;99.90
11142;DHT22;5625;50.122;19.864;2022-07-05T15:13:58;22.50;99.90
11142;DHT22;5625;50.122;19.864;2022-07-05T15:16:27;22.50;99.90
11142;DHT22;5625;50.122;19.864;2022-07-05T15:18:55;22.50;99.90
11142;DHT22;5625;50.122;19.864;2022-07-05T15:21:24;22.40;99.90
11142;DHT22;5625;50.122;19.864;2022-07-05T15:23:53;22.40;99.90
11142;DHT22;5625;50.122;19.864;2022-07-05T15:26:41;22.40;99.90
11142;DHT22;5625;50.122;19.864;2022-07-05T15:29:10;22.30;99.90
11142;DHT22;5625;50.122;19.864;2022-07-05T15:31:38;22.40;99.90
11142;DHT22;5625;50.122;19.864;2022-07-05T15:34:06;22.40;99.90
11142;DHT22;5625;50.122;19.864;2022-07-05T15:36:35;22.30;99.90
11142;DHT22;5625;50.122;19.864;2022-07-05T15:39:05;22.30;99.90
11142;DHT22;5625;50.122;19.864;2022-07-05T15:41:34;22.30;99.90
11142;DHT22;5625;50.122;19.864;2022-07-05T15:44:03;22.30;99.90
11142;DHT22;5625;50.122;19.864;2022-07-05T15:46:31;22.30;99.90
11142;DHT22;5625;50.122;19.864;2022-07-05T15:49:13;22.30;99.90
11142;DHT22;5625;50.122;19.864;2022-07-05T15:51:42;22.20;99.90
11142;DHT22;5625;50.122;19.864;2022-07-05T15:54:11;22.20;99.90
11142;DHT22;5625;50.122;19.864;2022-07-05T15:56:39;22.20;99.90
11142;DHT22;5625;50.122;19.864;2022-07-05T15:59:08;22.20;99.90